sensor_id;sensor_type;location;lat;lon;timestamp;P1;durP1;ratioP1;P2;durP2;ratioP2
71490;SDS011;59307;50.060;9.150;2023-04-03T00:00:42;7.35;;;3.00;;
71490;SDS011;59307;50.060;9.150;2023-04-03T00:03:07;11.37;;;3.50;;
71490;SDS011;59307;50.060;9.150;2023-04-03T00:05:32;6.37;;;3.37;;
71490;SDS011;59307;50.060;9.150;2023-04-03T00:07:57;5.03;;;2.80;;
71490;SDS011;59307;50.060;9.150;2023-04-03T00:10:22;6.87;;;2.80;;
71490;SDS011;59307;50.060;9.150;2023-04-03T00:12:48;7.07;;;2.83;;
71490;SDS011;59307;50.060;9.150;2023-04-03T00:15:13;6.07;;;3.40;;
71490;SDS011;59307;50.060;9.150;2023-04-03T00:17:38;4.97;;;2.70;;
71490;SDS011;59307;50.060;9.150;2023-04-03T00:20:03;6.70;;;2.70;;
71490;SDS011;59307;50.060;9.150;2023-04-03T00:22:29;5.37;;;2.90;;
71490;SDS011;59307;50.060;9.150;2023-04-03T00:24:54;6.17;;;3.40;;
71490;SDS011;59307;50.060;9.150;2023-04-03T00:27:20;7.28;;;2.92;;
71490;SDS011;59307;50.060;9.150;2023-04-03T00:29:45;5.17;;;3.00;;
71490;SDS011;59307;50.060;9.150;2023-04-03T00:32:10;9.40;;;4.33;;
71490;SDS011;59307;50.060;9.150;2023-04-03T00:34:35;7.50;;;3.67;;
71490;SDS011;59307;50.060;9.150;2023-04-03T00:37:01;8.27;;;3.20;;
71490;SDS011;59307;50.060;9.150;2023-04-03T00:39:26;5.17;;;3.00;;
71490;SDS011;59307;50.060;9.150;2023-04-03T00:41:51;5.80;;;2.60;;
71490;SDS011;59307;50.060;9.150;2023-04-03T00:47:11;7.63;;;2.70;;
71490;SDS011;59307;50.060;9.150;2023-04-03T00:49:38;5.10;;;2.63;;
71490;SDS011;59307;50.060;9.150;2023-04-03T00:52:04;3.37;;;2.20;;
71490;SDS011;59307;50.060;9.150;2023-04-03T00:54:31;5.57;;;2.83;;
71490;SDS011;59307;50.060;9.150;2023-04-03T00:56:57;5.07;;;2.55;;
71490;SDS011;59307;50.060;9.150;2023-04-03T00:59:24;4.37;;;2.60;;
71490;SDS011;59307;50.060;9.150;2023-04-03T01:01:52;5.32;;;2.90;;
71490;SDS011;59307;50.060;9.150;2023-04-03T01:04:33;7.43;;;3.22;;
71490;SDS011;59307;50.060;9.150;2023-04-03T01:07:01;7.80;;;4.30;;
71490;SDS011;59307;50.060;9.150;2023-04-03T01:09:28;7.60;;;4.07;;
71490;SDS011;59307;50.060;9.150;2023-04-03T01:11:53;8.27;;;4.57;;
71490;SDS011;59307;50.060;9.150;2023-04-03T01:14:19;6.55;;;4.03;;
71490;SDS011;59307;50.060;9.150;2023-04-03T01:16:53;7.70;;;3.97;;
71490;SDS011;59307;50.060;9.150;2023-04-03T01:19:19;6.70;;;4.18;;
71490;SDS011;59307;50.060;9.150;2023-04-03T01:26:37;5.18;;;3.20;;
71490;SDS011;59307;50.060;9.150;2023-04-03T01:29:02;5.60;;;3.03;;
71490;SDS011;59307;50.060;9.150;2023-04-03T01:31:30;7.87;;;3.43;;
71490;SDS011;59307;50.060;9.150;2023-04-03T01:33:56;7.40;;;3.45;;
71490;SDS011;59307;50.060;9.150;2023-04-03T01:36:25;7.10;;;3.57;;
71490;SDS011;59307;50.060;9.150;2023-04-03T01:38:51;7.97;;;3.85;;
71490;SDS011;59307;50.060;9.150;2023-04-03T01:41:17;6.67;;;3.70;;
71490;SDS011;59307;50.060;9.150;2023-04-03T01:43:42;5.93;;;3.30;;
71490;SDS011;59307;50.060;9.150;2023-04-03T01:46:07;5.95;;;2.92;;
71490;SDS011;59307;50.060;9.150;2023-04-03T01:48:32;7.90;;;3.07;;
71490;SDS011;59307;50.060;9.150;2023-04-03T01:50:58;5.07;;;3.30;;
71490;SDS011;59307;50.060;9.150;2023-04-03T01:53:23;5.57;;;3.20;;
71490;SDS011;59307;50.060;9.150;2023-04-03T01:55:48;6.50;;;3.17;;
71490;SDS011;59307;50.060;9.150;2023-04-03T01:58:13;7.27;;;3.23;;
71490;SDS011;59307;50.060;9.150;2023-04-03T02:00:38;5.37;;;2.97;;
71490;SDS011;59307;50.060;9.150;2023-04-03T02:03:04;7.60;;;3.20;;
71490;SDS011;59307;50.060;9.150;2023-04-03T02:05:29;7.30;;;3.77;;
71490;SDS011;59307;50.060;9.150;2023-04-03T02:07:55;6.47;;;3.50;;
71490;SDS011;59307;50.060;9.150;2023-04-03T02:10:20;7.07;;;3.30;;
71490;SDS011;59307;50.060;9.150;2023-04-03T02:12:45;6.10;;;3.07;;
71490;SDS011;59307;50.060;9.150;2023-04-03T02:15:10;5.65;;;3.30;;
71490;SDS011;59307;50.060;9.150;2023-04-03T02:17:36;6.07;;;3.20;;
71490;SDS011;59307;50.060;9.150;2023-04-03T02:20:01;5.77;;;3.13;;
71490;SDS011;59307;50.060;9.150;2023-04-03T02:22:26;5.17;;;2.70;;
71490;SDS011;59307;50.060;9.150;2023-04-03T02:24:51;5.47;;;2.50;;
71490;SDS011;59307;50.060;9.150;2023-04-03T02:27:16;5.90;;;2.73;;
71490;SDS011;59307;50.060;9.150;2023-04-03T02:29:42;4.93;;;2.60;;
71490;SDS011;59307;50.060;9.150;2023-04-03T02:32:07;7.93;;;2.80;;
71490;SDS011;59307;50.060;9.150;2023-04-03T02:34:32;5.57;;;2.47;;
71490;SDS011;59307;50.060;9.150;2023-04-03T02:36:57;5.53;;;3.00;;
71490;SDS011;59307;50.060;9.150;2023-04-03T02:39:22;8.67;;;2.90;;
71490;SDS011;59307;50.060;9.150;2023-04-03T02:41:47;7.20;;;3.00;;
71490;SDS011;59307;50.060;9.150;2023-04-03T02:44:13;5.50;;;2.63;;
71490;SDS011;59307;50.060;9.150;2023-04-03T02:46:38;4.73;;;2.53;;
71490;SDS011;59307;50.060;9.150;2023-04-03T02:49:03;5.17;;;2.93;;
71490;SDS011;59307;50.060;9.150;2023-04-03T02:51:28;5.37;;;2.60;;
71490;SDS011;59307;50.060;9.150;2023-04-03T02:53:54;5.27;;;2.53;;
71490;SDS011;59307;50.060;9.150;2023-04-03T02:56:19;5.50;;;2.80;;
71490;SDS011;59307;50.060;9.150;2023-04-03T02:58:45;7.53;;;3.00;;
71490;SDS011;59307;50.060;9.150;2023-04-03T03:01:10;8.30;;;2.50;;
71490;SDS011;59307;50.060;9.150;2023-04-03T03:03:36;7.32;;;2.58;;
71490;SDS011;59307;50.060;9.150;2023-04-03T03:06:11;7.60;;;2.90;;
71490;SDS011;59307;50.060;9.150;2023-04-03T03:08:37;5.13;;;2.20;;
71490;SDS011;59307;50.060;9.150;2023-04-03T03:11:02;5.30;;;2.53;;
71490;SDS011;59307;50.060;9.150;2023-04-03T03:13:28;5.73;;;2.53;;
71490;SDS011;59307;50.060;9.150;2023-04-03T03:15:53;6.57;;;2.67;;
71490;SDS011;59307;50.060;9.150;2023-04-03T03:18:19;5.32;;;2.15;;
71490;SDS011;59307;50.060;9.150;2023-04-03T03:20:44;4.80;;;2.50;;
71490;SDS011;59307;50.060;9.150;2023-04-03T03:23:10;3.97;;;2.13;;
71490;SDS011;59307;50.060;9.150;2023-04-03T03:25:41;5.83;;;2.07;;
71490;SDS011;59307;50.060;9.150;2023-04-03T03:28:06;4.68;;;2.38;;
71490;SDS011;59307;50.060;9.150;2023-04-03T03:30:32;6.05;;;2.17;;
71490;SDS011;59307;50.060;9.150;2023-04-03T03:32:57;7.07;;;2.30;;
71490;SDS011;59307;50.060;9.150;2023-04-03T03:35:22;6.95;;;2.30;;
71490;SDS011;59307;50.060;9.150;2023-04-03T03:37:47;5.40;;;2.33;;
71490;SDS011;59307;50.060;9.150;2023-04-03T03:40:12;3.67;;;1.90;;
71490;SDS011;59307;50.060;9.150;2023-04-03T03:42:38;10.77;;;2.43;;
71490;SDS011;59307;50.060;9.150;2023-04-03T03:45:03;5.27;;;1.90;;
71490;SDS011;59307;50.060;9.150;2023-04-03T03:47:28;6.83;;;2.13;;
71490;SDS011;59307;50.060;9.150;2023-04-03T03:49:53;4.77;;;2.07;;
71490;SDS011;59307;50.060;9.150;2023-04-03T03:52:19;6.23;;;1.80;;
71490;SDS011;59307;50.060;9.150;2023-04-03T03:54:44;5.97;;;1.80;;
71490;SDS011;59307;50.060;9.150;2023-04-03T03:57:09;4.53;;;2.07;;
71490;SDS011;59307;50.060;9.150;2023-04-03T03:59:35;8.05;;;2.08;;
71490;SDS011;59307;50.060;9.150;2023-04-03T04:02:00;5.93;;;1.97;;
71490;SDS011;59307;50.060;9.150;2023-04-03T04:04:26;4.13;;;1.80;;
71490;SDS011;59307;50.060;9.150;2023-04-03T04:06:51;6.97;;;2.33;;
71490;SDS011;59307;50.060;9.150;2023-04-03T04:09:16;6.87;;;2.17;;
71490;SDS011;59307;50.060;9.150;2023-04-03T04:11:41;4.80;;;1.90;;
71490;SDS011;59307;50.060;9.150;2023-04-03T04:14:07;4.07;;;2.03;;
71490;SDS011;59307;50.060;9.150;2023-04-03T04:16:35;6.82;;;2.15;;
71490;SDS011;59307;50.060;9.150;2023-04-03T04:19:00;8.13;;;2.60;;
71490;SDS011;59307;50.060;9.150;2023-04-03T04:21:25;7.30;;;1.93;;
71490;SDS011;59307;50.060;9.150;2023-04-03T04:23:50;6.87;;;2.53;;
71490;SDS011;59307;50.060;9.150;2023-04-03T04:26:15;7.35;;;2.05;;
71490;SDS011;59307;50.060;9.150;2023-04-03T04:28:41;6.37;;;1.90;;
71490;SDS011;59307;50.060;9.150;2023-04-03T04:31:06;9.40;;;2.47;;
71490;SDS011;59307;50.060;9.150;2023-04-03T04:33:31;6.13;;;1.70;;
71490;SDS011;59307;50.060;9.150;2023-04-03T04:35:56;5.80;;;1.90;;
71490;SDS011;59307;50.060;9.150;2023-04-03T04:38:21;6.77;;;1.80;;
71490;SDS011;59307;50.060;9.150;2023-04-03T04:40:47;5.63;;;2.53;;
71490;SDS011;59307;50.060;9.150;2023-04-03T04:43:12;6.82;;;2.40;;
71490;SDS011;59307;50.060;9.150;2023-04-03T04:45:39;4.45;;;2.00;;
71490;SDS011;59307;50.060;9.150;2023-04-03T04:48:04;6.57;;;2.67;;
71490;SDS011;59307;50.060;9.150;2023-04-03T04:50:30;8.07;;;2.67;;
71490;SDS011;59307;50.060;9.150;2023-04-03T04:52:55;5.63;;;2.20;;
71490;SDS011;59307;50.060;9.150;2023-04-03T04:55:20;5.53;;;2.10;;
71490;SDS011;59307;50.060;9.150;2023-04-03T04:57:45;5.23;;;2.10;;
71490;SDS011;59307;50.060;9.150;2023-04-03T05:00:10;4.30;;;2.17;;
71490;SDS011;59307;50.060;9.150;2023-04-03T05:02:36;5.20;;;1.83;;
71490;SDS011;59307;50.060;9.150;2023-04-03T05:05:01;6.53;;;2.03;;
71490;SDS011;59307;50.060;9.150;2023-04-03T05:07:26;5.87;;;2.20;;
71490;SDS011;59307;50.060;9.150;2023-04-03T05:09:51;7.10;;;2.20;;
71490;SDS011;59307;50.060;9.150;2023-04-03T05:12:17;7.00;;;2.20;;
71490;SDS011;59307;50.060;9.150;2023-04-03T05:14:42;4.67;;;1.97;;
71490;SDS011;59307;50.060;9.150;2023-04-03T05:17:07;6.93;;;2.53;;
71490;SDS011;59307;50.060;9.150;2023-04-03T05:19:32;7.30;;;2.27;;
71490;SDS011;59307;50.060;9.150;2023-04-03T05:21:57;4.37;;;1.97;;
71490;SDS011;59307;50.060;9.150;2023-04-03T05:24:23;5.93;;;2.40;;
71490;SDS011;59307;50.060;9.150;2023-04-03T05:26:48;8.20;;;2.27;;
71490;SDS011;59307;50.060;9.150;2023-04-03T05:29:13;4.67;;;1.73;;
71490;SDS011;59307;50.060;9.150;2023-04-03T05:31:38;5.03;;;2.63;;
71490;SDS011;59307;50.060;9.150;2023-04-03T05:34:03;6.43;;;2.37;;
71490;SDS011;59307;50.060;9.150;2023-04-03T05:36:28;9.37;;;2.10;;
71490;SDS011;59307;50.060;9.150;2023-04-03T05:38:54;7.77;;;2.30;;
71490;SDS011;59307;50.060;9.150;2023-04-03T05:41:21;6.00;;;2.42;;
71490;SDS011;59307;50.060;9.150;2023-04-03T05:43:46;4.43;;;2.73;;
71490;SDS011;59307;50.060;9.150;2023-04-03T05:46:12;4.83;;;2.00;;
71490;SDS011;59307;50.060;9.150;2023-04-03T05:48:37;7.03;;;2.40;;
71490;SDS011;59307;50.060;9.150;2023-04-03T05:51:03;8.90;;;2.30;;
71490;SDS011;59307;50.060;9.150;2023-04-03T05:53:29;6.07;;;2.20;;
71490;SDS011;59307;50.060;9.150;2023-04-03T05:55:56;6.45;;;2.38;;
71490;SDS011;59307;50.060;9.150;2023-04-03T05:58:21;7.73;;;2.40;;
71490;SDS011;59307;50.060;9.150;2023-04-03T06:00:46;4.77;;;2.23;;
71490;SDS011;59307;50.060;9.150;2023-04-03T06:03:12;6.93;;;2.40;;
71490;SDS011;59307;50.060;9.150;2023-04-03T06:05:37;6.60;;;2.30;;
71490;SDS011;59307;50.060;9.150;2023-04-03T06:08:02;4.97;;;2.00;;
71490;SDS011;59307;50.060;9.150;2023-04-03T06:10:28;6.53;;;2.60;;
71490;SDS011;59307;50.060;9.150;2023-04-03T06:12:53;6.37;;;2.13;;
71490;SDS011;59307;50.060;9.150;2023-04-03T06:15:18;5.83;;;2.67;;
71490;SDS011;59307;50.060;9.150;2023-04-03T06:17:43;7.13;;;2.30;;
71490;SDS011;59307;50.060;9.150;2023-04-03T06:20:09;8.27;;;2.27;;
71490;SDS011;59307;50.060;9.150;2023-04-03T06:22:34;5.88;;;2.42;;
71490;SDS011;59307;50.060;9.150;2023-04-03T06:25:00;6.17;;;2.13;;
71490;SDS011;59307;50.060;9.150;2023-04-03T06:27:25;7.10;;;2.83;;
71490;SDS011;59307;50.060;9.150;2023-04-03T06:29:50;6.97;;;2.53;;
71490;SDS011;59307;50.060;9.150;2023-04-03T06:32:16;9.17;;;2.67;;
71490;SDS011;59307;50.060;9.150;2023-04-03T06:34:41;4.88;;;2.25;;
71490;SDS011;59307;50.060;9.150;2023-04-03T06:37:10;5.37;;;2.20;;
71490;SDS011;59307;50.060;9.150;2023-04-03T06:39:35;10.07;;;2.50;;
71490;SDS011;59307;50.060;9.150;2023-04-03T06:42:00;5.93;;;2.33;;
71490;SDS011;59307;50.060;9.150;2023-04-03T06:44:25;7.17;;;2.60;;
71490;SDS011;59307;50.060;9.150;2023-04-03T06:46:51;5.60;;;2.50;;
71490;SDS011;59307;50.060;9.150;2023-04-03T06:49:16;8.35;;;2.05;;
71490;SDS011;59307;50.060;9.150;2023-04-03T06:51:42;6.23;;;2.17;;
71490;SDS011;59307;50.060;9.150;2023-04-03T06:54:07;6.67;;;2.40;;
71490;SDS011;59307;50.060;9.150;2023-04-03T06:56:33;6.00;;;2.25;;
71490;SDS011;59307;50.060;9.150;2023-04-03T06:58:58;5.63;;;2.63;;
71490;SDS011;59307;50.060;9.150;2023-04-03T07:01:24;5.23;;;2.40;;
71490;SDS011;59307;50.060;9.150;2023-04-03T07:03:51;6.20;;;2.10;;
71490;SDS011;59307;50.060;9.150;2023-04-03T07:06:16;5.50;;;2.40;;
71490;SDS011;59307;50.060;9.150;2023-04-03T07:08:42;6.38;;;2.15;;
71490;SDS011;59307;50.060;9.150;2023-04-03T07:11:08;11.13;;;5.00;;
71490;SDS011;59307;50.060;9.150;2023-04-03T07:13:34;6.72;;;2.63;;
71490;SDS011;59307;50.060;9.150;2023-04-03T07:15:59;9.30;;;2.40;;
71490;SDS011;59307;50.060;9.150;2023-04-03T07:18:25;9.88;;;2.50;;
71490;SDS011;59307;50.060;9.150;2023-04-03T07:20:51;5.90;;;1.80;;
71490;SDS011;59307;50.060;9.150;2023-04-03T07:23:16;7.60;;;2.40;;
71490;SDS011;59307;50.060;9.150;2023-04-03T07:25:42;7.90;;;2.63;;
71490;SDS011;59307;50.060;9.150;2023-04-03T07:28:08;6.65;;;2.58;;
71490;SDS011;59307;50.060;9.150;2023-04-03T07:30:33;6.43;;;2.20;;
71490;SDS011;59307;50.060;9.150;2023-04-03T07:32:59;7.80;;;2.30;;
71490;SDS011;59307;50.060;9.150;2023-04-03T07:35:24;4.00;;;1.97;;
71490;SDS011;59307;50.060;9.150;2023-04-03T07:37:49;4.67;;;1.90;;
71490;SDS011;59307;50.060;9.150;2023-04-03T07:40:15;8.40;;;2.70;;
71490;SDS011;59307;50.060;9.150;2023-04-03T07:42:40;6.13;;;2.03;;
71490;SDS011;59307;50.060;9.150;2023-04-03T07:45:05;4.93;;;2.30;;
71490;SDS011;59307;50.060;9.150;2023-04-03T07:47:31;3.60;;;1.92;;
71490;SDS011;59307;50.060;9.150;2023-04-03T07:49:57;3.87;;;1.77;;
71490;SDS011;59307;50.060;9.150;2023-04-03T07:52:23;6.20;;;2.30;;
71490;SDS011;59307;50.060;9.150;2023-04-03T07:54:48;3.73;;;2.03;;
71490;SDS011;59307;50.060;9.150;2023-04-03T07:57:13;2.60;;;1.60;;
71490;SDS011;59307;50.060;9.150;2023-04-03T07:59:39;5.38;;;1.75;;
71490;SDS011;59307;50.060;9.150;2023-04-03T08:02:07;6.37;;;1.80;;
71490;SDS011;59307;50.060;9.150;2023-04-03T08:04:32;10.68;;;1.90;;
71490;SDS011;59307;50.060;9.150;2023-04-03T08:06:58;5.00;;;2.07;;
71490;SDS011;59307;50.060;9.150;2023-04-03T08:09:23;3.83;;;1.63;;
71490;SDS011;59307;50.060;9.150;2023-04-03T08:11:48;4.80;;;1.70;;
71490;SDS011;59307;50.060;9.150;2023-04-03T08:14:13;5.47;;;2.20;;
71490;SDS011;59307;50.060;9.150;2023-04-03T08:16:42;7.97;;;2.53;;
71490;SDS011;59307;50.060;9.150;2023-04-03T08:19:07;5.88;;;2.92;;
71490;SDS011;59307;50.060;9.150;2023-04-03T08:21:32;5.20;;;1.60;;
71490;SDS011;59307;50.060;9.150;2023-04-03T08:23:58;5.50;;;1.80;;
71490;SDS011;59307;50.060;9.150;2023-04-03T08:26:23;6.47;;;2.50;;
71490;SDS011;59307;50.060;9.150;2023-04-03T08:28:48;6.67;;;2.50;;
71490;SDS011;59307;50.060;9.150;2023-04-03T08:31:15;3.08;;;1.90;;
71490;SDS011;59307;50.060;9.150;2023-04-03T08:33:40;5.87;;;2.27;;
71490;SDS011;59307;50.060;9.150;2023-04-03T08:36:06;3.22;;;1.50;;
71490;SDS011;59307;50.060;9.150;2023-04-03T08:38:32;5.10;;;2.03;;
71490;SDS011;59307;50.060;9.150;2023-04-03T08:41:04;5.00;;;1.73;;
71490;SDS011;59307;50.060;9.150;2023-04-03T08:43:47;3.38;;;1.80;;
71490;SDS011;59307;50.060;9.150;2023-04-03T08:46:16;4.82;;;1.70;;
71490;SDS011;59307;50.060;9.150;2023-04-03T08:48:42;3.17;;;1.67;;
71490;SDS011;59307;50.060;9.150;2023-04-03T08:51:14;5.37;;;1.80;;
71490;SDS011;59307;50.060;9.150;2023-04-03T08:53:42;5.43;;;1.77;;
71490;SDS011;59307;50.060;9.150;2023-04-03T08:56:10;5.72;;;2.30;;
71490;SDS011;59307;50.060;9.150;2023-04-03T08:59:23;5.93;;;2.00;;
71490;SDS011;59307;50.060;9.150;2023-04-03T09:01:37;5.75;;;1.85;;
71490;SDS011;59307;50.060;9.150;2023-04-03T09:04:09;3.72;;;1.85;;
71490;SDS011;59307;50.060;9.150;2023-04-03T09:06:35;5.07;;;2.17;;
71490;SDS011;59307;50.060;9.150;2023-04-03T09:19:48;6.30;;;2.00;;
71490;SDS011;59307;50.060;9.150;2023-04-03T09:21:48;5.53;;;2.20;;
71490;SDS011;59307;50.060;9.150;2023-04-03T09:24:13;5.37;;;2.00;;
71490;SDS011;59307;50.060;9.150;2023-04-03T09:29:08;6.95;;;3.10;;
71490;SDS011;59307;50.060;9.150;2023-04-03T09:31:42;6.13;;;2.50;;
71490;SDS011;59307;50.060;9.150;2023-04-03T09:34:10;6.75;;;2.00;;
71490;SDS011;59307;50.060;9.150;2023-04-03T09:36:39;4.20;;;2.00;;
71490;SDS011;59307;50.060;9.150;2023-04-03T09:39:07;5.33;;;2.03;;
71490;SDS011;59307;50.060;9.150;2023-04-03T09:41:34;3.92;;;2.20;;
71490;SDS011;59307;50.060;9.150;2023-04-03T09:43:59;6.30;;;2.40;;
71490;SDS011;59307;50.060;9.150;2023-04-03T09:46:28;3.90;;;1.90;;
71490;SDS011;59307;50.060;9.150;2023-04-03T09:48:58;6.93;;;2.28;;
71490;SDS011;59307;50.060;9.150;2023-04-03T09:51:25;4.45;;;2.10;;
71490;SDS011;59307;50.060;9.150;2023-04-03T09:53:51;5.03;;;1.98;;
71490;SDS011;59307;50.060;9.150;2023-04-03T09:58:45;4.80;;;2.17;;
71490;SDS011;59307;50.060;9.150;2023-04-03T10:06:31;4.17;;;2.00;;
71490;SDS011;59307;50.060;9.150;2023-04-03T10:09:00;4.68;;;2.20;;
71490;SDS011;59307;50.060;9.150;2023-04-03T10:11:26;3.38;;;2.30;;
71490;SDS011;59307;50.060;9.150;2023-04-03T10:13:58;3.77;;;1.70;;
71490;SDS011;59307;50.060;9.150;2023-04-03T10:16:45;5.97;;;1.80;;
71490;SDS011;59307;50.060;9.150;2023-04-03T10:24:18;6.55;;;2.30;;
71490;SDS011;59307;50.060;9.150;2023-04-03T10:26:59;3.80;;;2.10;;
71490;SDS011;59307;50.060;9.150;2023-04-03T10:34:26;3.57;;;1.60;;
71490;SDS011;59307;50.060;9.150;2023-04-03T10:47:02;6.88;;;1.85;;
71490;SDS011;59307;50.060;9.150;2023-04-03T10:49:36;5.13;;;1.60;;
71490;SDS011;59307;50.060;9.150;2023-04-03T10:54:45;4.72;;;1.98;;
71490;SDS011;59307;50.060;9.150;2023-04-03T10:57:11;3.60;;;1.60;;
71490;SDS011;59307;50.060;9.150;2023-04-03T10:59:38;3.60;;;1.60;;
71490;SDS011;59307;50.060;9.150;2023-04-03T11:04:59;4.03;;;1.45;;
71490;SDS011;59307;50.060;9.150;2023-04-03T11:07:27;2.13;;;1.42;;
71490;SDS011;59307;50.060;9.150;2023-04-03T11:09:55;3.20;;;1.50;;
71490;SDS011;59307;50.060;9.150;2023-04-03T11:12:26;10.65;;;3.63;;
71490;SDS011;59307;50.060;9.150;2023-04-03T11:14:53;5.03;;;2.10;;
71490;SDS011;59307;50.060;9.150;2023-04-03T11:24:51;3.20;;;1.90;;
71490;SDS011;59307;50.060;9.150;2023-04-03T11:27:19;5.07;;;2.37;;
71490;SDS011;59307;50.060;9.150;2023-04-03T11:29:47;2.60;;;1.60;;
71490;SDS011;59307;50.060;9.150;2023-04-03T11:37:10;3.83;;;1.67;;
71490;SDS011;59307;50.060;9.150;2023-04-03T11:39:36;4.70;;;1.80;;
71490;SDS011;59307;50.060;9.150;2023-04-03T11:42:13;3.10;;;1.70;;
71490;SDS011;59307;50.060;9.150;2023-04-03T11:44:39;3.95;;;1.80;;
71490;SDS011;59307;50.060;9.150;2023-04-03T11:47:05;3.17;;;1.70;;
71490;SDS011;59307;50.060;9.150;2023-04-03T11:55:00;4.15;;;1.65;;
71490;SDS011;59307;50.060;9.150;2023-04-03T12:02:53;3.90;;;1.52;;
71490;SDS011;59307;50.060;9.150;2023-04-03T12:05:26;3.67;;;1.67;;
71490;SDS011;59307;50.060;9.150;2023-04-03T12:11:50;4.25;;;1.80;;
71490;SDS011;59307;50.060;9.150;2023-04-03T12:16:21;4.10;;;1.63;;
71490;SDS011;59307;50.060;9.150;2023-04-03T12:21:16;3.10;;;1.63;;
71490;SDS011;59307;50.060;9.150;2023-04-03T12:26:30;4.13;;;1.70;;
71490;SDS011;59307;50.060;9.150;2023-04-03T12:28:56;2.90;;;1.60;;
71490;SDS011;59307;50.060;9.150;2023-04-03T12:31:22;2.78;;;1.70;;
71490;SDS011;59307;50.060;9.150;2023-04-03T12:34:09;3.78;;;1.75;;
71490;SDS011;59307;50.060;9.150;2023-04-03T12:36:45;3.25;;;2.03;;
71490;SDS011;59307;50.060;9.150;2023-04-03T12:39:18;4.15;;;1.60;;
71490;SDS011;59307;50.060;9.150;2023-04-03T12:44:17;3.30;;;1.53;;
71490;SDS011;59307;50.060;9.150;2023-04-03T12:46:47;3.75;;;1.60;;
71490;SDS011;59307;50.060;9.150;2023-04-03T12:49:22;4.70;;;1.60;;
71490;SDS011;59307;50.060;9.150;2023-04-03T12:51:49;2.35;;;1.48;;
71490;SDS011;59307;50.060;9.150;2023-04-03T12:56:43;3.13;;;1.48;;
71490;SDS011;59307;50.060;9.150;2023-04-03T12:59:41;3.93;;;1.50;;
71490;SDS011;59307;50.060;9.150;2023-04-03T13:02:00;5.65;;;1.50;;
71490;SDS011;59307;50.060;9.150;2023-04-03T13:04:29;2.80;;;1.60;;
71490;SDS011;59307;50.060;9.150;2023-04-03T13:06:55;4.93;;;1.52;;
71490;SDS011;59307;50.060;9.150;2023-04-03T13:09:25;2.27;;;1.40;;
71490;SDS011;59307;50.060;9.150;2023-04-03T13:11:55;3.83;;;1.70;;
71490;SDS011;59307;50.060;9.150;2023-04-03T13:14:22;5.25;;;1.80;;
71490;SDS011;59307;50.060;9.150;2023-04-03T13:19:28;3.55;;;1.95;;
71490;SDS011;59307;50.060;9.150;2023-04-03T13:21:59;5.30;;;2.07;;
71490;SDS011;59307;50.060;9.150;2023-04-03T13:24:27;3.60;;;1.80;;
71490;SDS011;59307;50.060;9.150;2023-04-03T13:26:54;3.45;;;1.60;;
71490;SDS011;59307;50.060;9.150;2023-04-03T13:29:27;3.27;;;1.80;;
71490;SDS011;59307;50.060;9.150;2023-04-03T13:31:53;4.72;;;1.85;;
71490;SDS011;59307;50.060;9.150;2023-04-03T13:34:19;2.83;;;1.70;;
71490;SDS011;59307;50.060;9.150;2023-04-03T13:36:55;4.63;;;2.13;;
71490;SDS011;59307;50.060;9.150;2023-04-03T13:42:32;5.13;;;2.10;;
71490;SDS011;59307;50.060;9.150;2023-04-03T13:44:33;3.55;;;1.92;;
71490;SDS011;59307;50.060;9.150;2023-04-03T13:47:00;2.15;;;1.52;;
71490;SDS011;59307;50.060;9.150;2023-04-03T13:51:51;3.20;;;1.70;;
71490;SDS011;59307;50.060;9.150;2023-04-03T13:54:18;2.37;;;1.63;;
71490;SDS011;59307;50.060;9.150;2023-04-03T13:56:44;4.28;;;1.95;;
71490;SDS011;59307;50.060;9.150;2023-04-03T14:01:38;3.85;;;1.70;;
71490;SDS011;59307;50.060;9.150;2023-04-03T14:04:12;5.47;;;2.13;;
71490;SDS011;59307;50.060;9.150;2023-04-03T14:06:38;3.67;;;2.03;;
71490;SDS011;59307;50.060;9.150;2023-04-03T14:09:03;4.83;;;1.70;;
71490;SDS011;59307;50.060;9.150;2023-04-03T14:11:29;5.57;;;2.33;;
71490;SDS011;59307;50.060;9.150;2023-04-03T14:13:55;4.45;;;2.00;;
71490;SDS011;59307;50.060;9.150;2023-04-03T14:16:22;4.43;;;2.20;;
71490;SDS011;59307;50.060;9.150;2023-04-03T14:18:48;5.03;;;1.98;;
71490;SDS011;59307;50.060;9.150;2023-04-03T14:21:14;5.05;;;2.30;;
71490;SDS011;59307;50.060;9.150;2023-04-03T14:23:39;3.90;;;2.03;;
71490;SDS011;59307;50.060;9.150;2023-04-03T14:26:09;4.43;;;2.25;;
71490;SDS011;59307;50.060;9.150;2023-04-03T14:28:35;5.32;;;2.30;;
71490;SDS011;59307;50.060;9.150;2023-04-03T14:31:00;5.57;;;2.30;;
71490;SDS011;59307;50.060;9.150;2023-04-03T14:33:25;5.03;;;1.90;;
71490;SDS011;59307;50.060;9.150;2023-04-03T14:35:52;3.77;;;1.60;;
71490;SDS011;59307;50.060;9.150;2023-04-03T14:38:22;3.50;;;1.70;;
71490;SDS011;59307;50.060;9.150;2023-04-03T14:40:48;3.10;;;1.70;;
71490;SDS011;59307;50.060;9.150;2023-04-03T14:43:14;3.50;;;1.60;;
71490;SDS011;59307;50.060;9.150;2023-04-03T14:45:40;4.33;;;1.50;;
71490;SDS011;59307;50.060;9.150;2023-04-03T14:48:06;4.28;;;1.80;;
71490;SDS011;59307;50.060;9.150;2023-04-03T14:50:34;2.28;;;1.60;;
71490;SDS011;59307;50.060;9.150;2023-04-03T14:53:00;3.97;;;2.17;;
71490;SDS011;59307;50.060;9.150;2023-04-03T14:55:25;4.20;;;1.63;;
71490;SDS011;59307;50.060;9.150;2023-04-03T14:57:50;4.60;;;1.97;;
71490;SDS011;59307;50.060;9.150;2023-04-03T15:00:17;5.13;;;1.80;;
71490;SDS011;59307;50.060;9.150;2023-04-03T15:02:42;3.40;;;1.90;;
71490;SDS011;59307;50.060;9.150;2023-04-03T15:05:09;3.38;;;1.60;;
71490;SDS011;59307;50.060;9.150;2023-04-03T15:07:36;2.00;;;1.20;;
71490;SDS011;59307;50.060;9.150;2023-04-03T15:12:40;5.27;;;1.67;;
71490;SDS011;59307;50.060;9.150;2023-04-03T15:15:05;2.43;;;1.70;;
71490;SDS011;59307;50.060;9.150;2023-04-03T15:17:30;2.45;;;1.20;;
71490;SDS011;59307;50.060;9.150;2023-04-03T15:19:56;3.03;;;1.40;;
71490;SDS011;59307;50.060;9.150;2023-04-03T15:22:21;2.13;;;1.30;;
71490;SDS011;59307;50.060;9.150;2023-04-03T15:24:46;4.60;;;1.40;;
71490;SDS011;59307;50.060;9.150;2023-04-03T15:27:11;3.07;;;1.20;;
71490;SDS011;59307;50.060;9.150;2023-04-03T15:29:38;2.30;;;1.10;;
71490;SDS011;59307;50.060;9.150;2023-04-03T15:32:03;2.38;;;1.40;;
71490;SDS011;59307;50.060;9.150;2023-04-03T15:34:29;2.97;;;1.20;;
71490;SDS011;59307;50.060;9.150;2023-04-03T15:36:54;4.93;;;1.70;;
71490;SDS011;59307;50.060;9.150;2023-04-03T15:39:20;3.73;;;1.43;;
71490;SDS011;59307;50.060;9.150;2023-04-03T15:41:45;2.88;;;1.20;;
71490;SDS011;59307;50.060;9.150;2023-04-03T15:44:11;3.67;;;1.37;;
71490;SDS011;59307;50.060;9.150;2023-04-03T15:46:37;2.28;;;1.10;;
71490;SDS011;59307;50.060;9.150;2023-04-03T15:49:03;5.30;;;1.30;;
71490;SDS011;59307;50.060;9.150;2023-04-03T15:51:28;4.47;;;1.47;;
71490;SDS011;59307;50.060;9.150;2023-04-03T15:53:53;4.20;;;1.47;;
71490;SDS011;59307;50.060;9.150;2023-04-03T15:56:19;3.97;;;1.40;;
71490;SDS011;59307;50.060;9.150;2023-04-03T15:58:44;2.87;;;1.40;;
71490;SDS011;59307;50.060;9.150;2023-04-03T16:01:09;5.37;;;2.00;;
71490;SDS011;59307;50.060;9.150;2023-04-03T16:03:35;3.58;;;1.40;;
71490;SDS011;59307;50.060;9.150;2023-04-03T16:06:00;4.40;;;1.43;;
71490;SDS011;59307;50.060;9.150;2023-04-03T16:08:26;2.63;;;1.40;;
71490;SDS011;59307;50.060;9.150;2023-04-03T16:10:51;4.57;;;1.30;;
71490;SDS011;59307;50.060;9.150;2023-04-03T16:13:17;3.97;;;1.20;;
71490;SDS011;59307;50.060;9.150;2023-04-03T16:15:42;4.90;;;1.47;;
71490;SDS011;59307;50.060;9.150;2023-04-03T16:18:08;2.30;;;1.27;;
71490;SDS011;59307;50.060;9.150;2023-04-03T16:20:34;2.95;;;1.40;;
71490;SDS011;59307;50.060;9.150;2023-04-03T16:22:59;2.53;;;1.10;;
71490;SDS011;59307;50.060;9.150;2023-04-03T16:25:25;3.43;;;1.23;;
71490;SDS011;59307;50.060;9.150;2023-04-03T16:27:50;4.67;;;1.20;;
71490;SDS011;59307;50.060;9.150;2023-04-03T16:30:15;3.37;;;1.40;;